sensor_id;sensor_type;location;lat;lon;timestamp;pressure;altitude;pressure_sealevel;temperature;humidity
61474;BME280;53694;49.784;30.150;2023-03-23T00:00:17;99646.80;;;5.69;71.04
61474;BME280;53694;49.784;30.150;2023-03-23T00:01:20;99644.09;;;5.90;70.44
61474;BME280;53694;49.784;30.150;2023-03-23T00:02:29;99642.05;;;6.17;69.64
61474;BME280;53694;49.784;30.150;2023-03-23T00:03:27;99642.78;;;6.47;68.53
61474;BME280;53694;49.784;30.150;2023-03-23T00:04:29;99636.09;;;6.78;67.96
61474;BME280;53694;49.784;30.150;2023-03-23T00:05:30;99634.24;;;7.03;67.42
61474;BME280;53694;49.784;30.150;2023-03-23T00:06:32;99637.01;;;7.15;66.92
61474;BME280;53694;49.784;30.150;2023-03-23T00:07:34;99635.42;;;7.14;66.43
61474;BME280;53694;49.784;30.150;2023-03-23T00:08:39;99637.32;;;7.01;66.37
61474;BME280;53694;49.784;30.150;2023-03-23T00:09:40;99642.13;;;6.83;66.67
61474;BME280;53694;49.784;30.150;2023-03-23T00:10:42;99634.31;;;6.61;68.43
61474;BME280;53694;49.784;30.150;2023-03-23T00:11:43;99648.45;;;6.42;68.97
61474;BME280;53694;49.784;30.150;2023-03-23T00:12:45;99639.12;;;6.22;69.85
61474;BME280;53694;49.784;30.150;2023-03-23T00:13:48;99644.70;;;6.05;70.41
61474;BME280;53694;49.784;30.150;2023-03-23T00:14:49;99642.50;;;5.89;70.42
61474;BME280;53694;49.784;30.150;2023-03-23T00:15:51;99643.08;;;5.74;70.42
61474;BME280;53694;49.784;30.150;2023-03-23T00:16:53;99635.27;;;5.64;70.44
61474;BME280;53694;49.784;30.150;2023-03-23T00:17:55;99639.27;;;5.66;70.50
61474;BME280;53694;49.784;30.150;2023-03-23T00:19:01;99631.00;;;5.84;70.57
61474;BME280;53694;49.784;30.150;2023-03-23T00:20:04;99630.86;;;6.10;70.95
61474;BME280;53694;49.784;30.150;2023-03-23T00:21:05;99630.59;;;6.44;70.91
61474;BME280;53694;49.784;30.150;2023-03-23T00:22:07;99631.91;;;6.80;70.02
61474;BME280;53694;49.784;30.150;2023-03-23T00:23:08;99633.80;;;7.13;68.29
61474;BME280;53694;49.784;30.150;2023-03-23T00:24:12;99632.52;;;7.43;67.60
61474;BME280;53694;49.784;30.150;2023-03-23T00:25:14;99624.77;;;7.70;66.30
61474;BME280;53694;49.784;30.150;2023-03-23T00:26:15;99628.50;;;7.90;64.82
61474;BME280;53694;49.784;30.150;2023-03-23T00:27:17;99630.44;;;7.89;64.28
61474;BME280;53694;49.784;30.150;2023-03-23T00:28:20;99632.06;;;7.78;65.30
61474;BME280;53694;49.784;30.150;2023-03-23T00:29:22;99623.62;;;7.59;65.01
61474;BME280;53694;49.784;30.150;2023-03-23T00:30:24;99622.92;;;7.37;65.64
61474;BME280;53694;49.784;30.150;2023-03-23T00:31:26;99626.75;;;7.12;65.73
61474;BME280;53694;49.784;30.150;2023-03-23T00:32:28;99621.22;;;6.87;67.05
61474;BME280;53694;49.784;30.150;2023-03-23T00:33:31;99616.48;;;6.63;67.93
61474;BME280;53694;49.784;30.150;2023-03-23T00:34:33;99620.48;;;6.45;68.94
61474;BME280;53694;49.784;30.150;2023-03-23T00:35:34;99620.97;;;6.26;69.52
61474;BME280;53694;49.784;30.150;2023-03-23T00:36:36;99626.20;;;6.10;69.99
61474;BME280;53694;49.784;30.150;2023-03-23T00:37:37;99628.70;;;5.94;70.38
61474;BME280;53694;49.784;30.150;2023-03-23T00:38:40;99625.89;;;5.82;71.11
61474;BME280;53694;49.784;30.150;2023-03-23T00:39:42;99632.34;;;5.69;71.05
61474;BME280;53694;49.784;30.150;2023-03-23T00:40:44;99629.02;;;5.63;71.94
61474;BME280;53694;49.784;30.150;2023-03-23T00:41:46;99626.25;;;5.72;72.17
61474;BME280;53694;49.784;30.150;2023-03-23T00:42:48;99624.88;;;5.95;71.46
61474;BME280;53694;49.784;30.150;2023-03-23T00:43:49;99619.83;;;6.27;71.05
61474;BME280;53694;49.784;30.150;2023-03-23T00:44:51;99622.27;;;6.62;70.25
61474;BME280;53694;49.784;30.150;2023-03-23T00:45:53;99621.61;;;6.98;68.74
61474;BME280;53694;49.784;30.150;2023-03-23T00:46:54;99616.42;;;7.30;67.60
61474;BME280;53694;49.784;30.150;2023-03-23T00:47:56;99616.57;;;7.58;66.13
61474;BME280;53694;49.784;30.150;2023-03-23T00:48:57;99624.98;;;7.77;64.89
61474;BME280;53694;49.784;30.150;2023-03-23T00:49:59;99625.45;;;7.79;64.04
61474;BME280;53694;49.784;30.150;2023-03-23T00:51:01;99616.89;;;7.68;64.01
61474;BME280;53694;49.784;30.150;2023-03-23T00:52:03;99622.59;;;7.51;64.56
61474;BME280;53694;49.784;30.150;2023-03-23T00:53:06;99624.30;;;7.31;64.94
61474;BME280;53694;49.784;30.150;2023-03-23T00:54:08;99616.50;;;7.09;65.94
61474;BME280;53694;49.784;30.150;2023-03-23T00:55:09;99616.45;;;6.84;66.20
61474;BME280;53694;49.784;30.150;2023-03-23T00:56:13;99609.77;;;6.61;66.68
61474;BME280;53694;49.784;30.150;2023-03-23T00:57:14;99606.59;;;6.38;67.45
61474;BME280;53694;49.784;30.150;2023-03-23T00:58:16;99619.44;;;6.16;67.94
61474;BME280;53694;49.784;30.150;2023-03-23T00:59:18;99610.91;;;5.97;68.46
61474;BME280;53694;49.784;30.150;2023-03-23T01:00:20;99611.78;;;5.80;69.09
61474;BME280;53694;49.784;30.150;2023-03-23T01:01:21;99615.05;;;5.65;70.00
61474;BME280;53694;49.784;30.150;2023-03-23T01:02:23;99617.22;;;5.50;70.89
61474;BME280;53694;49.784;30.150;2023-03-23T01:03:25;99614.08;;;5.40;71.69
61474;BME280;53694;49.784;30.150;2023-03-23T01:04:26;99616.31;;;5.38;72.55
61474;BME280;53694;49.784;30.150;2023-03-23T01:05:28;99617.70;;;5.53;72.74
61474;BME280;53694;49.784;30.150;2023-03-23T01:06:32;99615.95;;;5.77;71.84
61474;BME280;53694;49.784;30.150;2023-03-23T01:07:34;99616.09;;;6.11;70.91
61474;BME280;53694;49.784;30.150;2023-03-23T01:08:35;99612.78;;;6.47;69.87
61474;BME280;53694;49.784;30.150;2023-03-23T01:09:37;99608.27;;;6.84;68.88
61474;BME280;53694;49.784;30.150;2023-03-23T01:10:39;99607.09;;;7.18;67.31
61474;BME280;53694;49.784;30.150;2023-03-23T01:11:41;99602.78;;;7.42;65.95
61474;BME280;53694;49.784;30.150;2023-03-23T01:12:45;99606.98;;;7.51;65.70
61474;BME280;53694;49.784;30.150;2023-03-23T01:13:47;99603.69;;;7.46;65.22
61474;BME280;53694;49.784;30.150;2023-03-23T01:14:49;99603.11;;;7.28;65.00
61474;BME280;53694;49.784;30.150;2023-03-23T01:15:50;99598.52;;;7.08;65.49
61474;BME280;53694;49.784;30.150;2023-03-23T01:16:52;99600.08;;;6.84;66.06
61474;BME280;53694;49.784;30.150;2023-03-23T01:17:53;99597.25;;;6.60;67.44
61474;BME280;53694;49.784;30.150;2023-03-23T01:18:55;99599.21;;;6.38;68.16
61474;BME280;53694;49.784;30.150;2023-03-23T01:19:57;99599.22;;;6.17;68.78
61474;BME280;53694;49.784;30.150;2023-03-23T01:21:08;99600.00;;;5.97;69.48
61474;BME280;53694;49.784;30.150;2023-03-23T01:22:06;99595.28;;;5.76;69.78
61474;BME280;53694;49.784;30.150;2023-03-23T01:23:07;99596.37;;;5.55;70.16
61474;BME280;53694;49.784;30.150;2023-03-23T01:24:09;99593.73;;;5.37;70.88
61474;BME280;53694;49.784;30.150;2023-03-23T01:25:12;99594.27;;;5.22;71.73
61474;BME280;53694;49.784;30.150;2023-03-23T01:26:17;99599.89;;;5.17;72.34
61474;BME280;53694;49.784;30.150;2023-03-23T01:27:19;99597.94;;;5.26;72.60
61474;BME280;53694;49.784;30.150;2023-03-23T01:28:20;99591.91;;;5.50;72.73
61474;BME280;53694;49.784;30.150;2023-03-23T01:29:22;99600.08;;;5.80;71.82
61474;BME280;53694;49.784;30.150;2023-03-23T01:30:24;99594.77;;;6.13;70.87
61474;BME280;53694;49.784;30.150;2023-03-23T01:31:26;99593.68;;;6.47;69.39
61474;BME280;53694;49.784;30.150;2023-03-23T01:32:28;99591.41;;;6.82;68.46
61474;BME280;53694;49.784;30.150;2023-03-23T01:33:30;99590.11;;;7.13;67.29
61474;BME280;53694;49.784;30.150;2023-03-23T01:34:31;99587.29;;;7.34;65.78
61474;BME280;53694;49.784;30.150;2023-03-23T01:35:36;99596.39;;;7.38;65.46
61474;BME280;53694;49.784;30.150;2023-03-23T01:36:38;99586.72;;;7.28;65.15
61474;BME280;53694;49.784;30.150;2023-03-23T01:37:40;99591.47;;;7.07;65.32
61474;BME280;53694;49.784;30.150;2023-03-23T01:38:43;99589.82;;;6.81;67.36
61474;BME280;53694;49.784;30.150;2023-03-23T01:39:45;99576.44;;;6.55;67.54
61474;BME280;53694;49.784;30.150;2023-03-23T01:40:47;99579.40;;;6.29;67.95
61474;BME280;53694;49.784;30.150;2023-03-23T01:41:49;99582.78;;;6.05;68.30
61474;BME280;53694;49.784;30.150;2023-03-23T01:42:50;99582.28;;;5.82;68.65
61474;BME280;53694;49.784;30.150;2023-03-23T01:44:07;99586.41;;;5.59;69.66
61474;BME280;53694;49.784;30.150;2023-03-23T01:46:25;99581.97;;;5.16;71.25
61474;BME280;53694;49.784;30.150;2023-03-23T01:47:27;99576.59;;;4.98;72.13
61474;BME280;53694;49.784;30.150;2023-03-23T01:48:32;99579.48;;;4.93;72.60
61474;BME280;53694;49.784;30.150;2023-03-23T01:49:37;99587.29;;;5.04;72.97
61474;BME280;53694;49.784;30.150;2023-03-23T01:50:43;99580.95;;;5.29;73.37
61474;BME280;53694;49.784;30.150;2023-03-23T01:51:48;99581.56;;;5.64;73.06
61474;BME280;53694;49.784;30.150;2023-03-23T01:52:52;99578.47;;;6.04;72.60
61474;BME280;53694;49.784;30.150;2023-03-23T01:53:57;99582.77;;;6.47;71.93
61474;BME280;53694;49.784;30.150;2023-03-23T01:55:00;99577.54;;;6.87;70.65
61474;BME280;53694;49.784;30.150;2023-03-23T01:56:02;99576.82;;;7.23;69.24
61474;BME280;53694;49.784;30.150;2023-03-23T01:57:06;99576.61;;;7.53;66.96
61474;BME280;53694;49.784;30.150;2023-03-23T01:58:10;99579.09;;;7.83;66.44
61474;BME280;53694;49.784;30.150;2023-03-23T01:59:13;99576.53;;;8.02;64.29
61474;BME280;53694;49.784;30.150;2023-03-23T02:00:15;99578.47;;;8.01;63.92
61474;BME280;53694;49.784;30.150;2023-03-23T02:01:18;99585.58;;;7.90;63.50
61474;BME280;53694;49.784;30.150;2023-03-23T02:02:21;99577.84;;;7.68;63.85
61474;BME280;53694;49.784;30.150;2023-03-23T02:03:24;99592.32;;;7.44;64.61
61474;BME280;53694;49.784;30.150;2023-03-23T02:04:26;99591.72;;;7.14;64.54
61474;BME280;53694;49.784;30.150;2023-03-23T02:05:33;99579.34;;;6.83;64.83
61474;BME280;53694;49.784;30.150;2023-03-23T02:06:36;99576.44;;;6.55;66.20
61474;BME280;53694;49.784;30.150;2023-03-23T02:07:38;99581.64;;;6.27;67.14
61474;BME280;53694;49.784;30.150;2023-03-23T02:08:41;99583.92;;;6.04;67.50
61474;BME280;53694;49.784;30.150;2023-03-23T02:09:44;99592.05;;;5.83;68.15
61474;BME280;53694;49.784;30.150;2023-03-23T02:10:45;99589.28;;;5.62;71.22
61474;BME280;53694;49.784;30.150;2023-03-23T02:11:48;99577.69;;;5.44;72.03
61474;BME280;53694;49.784;30.150;2023-03-23T02:12:50;99585.75;;;5.32;74.13
61474;BME280;53694;49.784;30.150;2023-03-23T02:13:52;99586.88;;;5.31;75.42
61474;BME280;53694;49.784;30.150;2023-03-23T02:14:54;99589.37;;;5.45;75.61
61474;BME280;53694;49.784;30.150;2023-03-23T02:16:24;99589.69;;;5.73;75.76
61474;BME280;53694;49.784;30.150;2023-03-23T02:17:31;99585.65;;;6.09;75.10
61474;BME280;53694;49.784;30.150;2023-03-23T02:18:40;99581.12;;;6.67;74.22
61474;BME280;53694;49.784;30.150;2023-03-23T02:20:07;99594.90;;;7.16;72.98
61474;BME280;53694;49.784;30.150;2023-03-23T02:21:29;99591.62;;;7.59;71.40
61474;BME280;53694;49.784;30.150;2023-03-23T02:22:52;99590.53;;;8.13;70.00
61474;BME280;53694;49.784;30.150;2023-03-23T02:27:06;99587.05;;;9.28;63.30
61474;BME280;53694;49.784;30.150;2023-03-23T02:29:24;99584.04;;;9.33;61.22
61474;BME280;53694;49.784;30.150;2023-03-23T02:31:49;99582.84;;;8.71;62.24
61474;BME280;53694;49.784;30.150;2023-03-23T02:33:11;99579.06;;;8.35;61.58
61474;BME280;53694;49.784;30.150;2023-03-23T02:34:19;99587.27;;;7.95;63.77
61474;BME280;53694;49.784;30.150;2023-03-23T02:35:24;99580.80;;;7.50;63.95
61474;BME280;53694;49.784;30.150;2023-03-23T02:36:41;99581.37;;;7.19;65.00
61474;BME280;53694;49.784;30.150;2023-03-23T02:37:52;99576.20;;;6.93;66.30
61474;BME280;53694;49.784;30.150;2023-03-23T02:39:09;99586.92;;;6.65;67.21
61474;BME280;53694;49.784;30.150;2023-03-23T02:40:15;99582.98;;;6.42;68.15
61474;BME280;53694;49.784;30.150;2023-03-23T02:41:20;99584.44;;;6.18;69.06
61474;BME280;53694;49.784;30.150;2023-03-23T02:42:29;99579.92;;;6.01;70.68
61474;BME280;53694;49.784;30.150;2023-03-23T02:43:42;99587.98;;;5.89;71.68
61474;BME280;53694;49.784;30.150;2023-03-23T02:44:45;99590.31;;;5.79;72.44
61474;BME280;53694;49.784;30.150;2023-03-23T02:45:48;99585.66;;;5.79;73.68
61474;BME280;53694;49.784;30.150;2023-03-23T02:46:53;99578.98;;;5.97;74.25
61474;BME280;53694;49.784;30.150;2023-03-23T02:47:55;99585.17;;;6.28;74.11
61474;BME280;53694;49.784;30.150;2023-03-23T02:48:57;99581.81;;;6.64;73.50
61474;BME280;53694;49.784;30.150;2023-03-23T02:50:01;99577.70;;;7.03;72.58
61474;BME280;53694;49.784;30.150;2023-03-23T02:51:05;99581.04;;;7.45;71.69
61474;BME280;53694;49.784;30.150;2023-03-23T02:52:12;99583.05;;;7.85;70.52
61474;BME280;53694;49.784;30.150;2023-03-23T02:53:18;99577.08;;;8.20;69.29
61474;BME280;53694;49.784;30.150;2023-03-23T02:54:21;99575.37;;;8.56;68.29
61474;BME280;53694;49.784;30.150;2023-03-23T02:55:25;99575.78;;;8.86;67.10
61474;BME280;53694;49.784;30.150;2023-03-23T02:56:30;99573.97;;;9.06;66.30
61474;BME280;53694;49.784;30.150;2023-03-23T02:57:32;99567.06;;;9.12;65.75
61474;BME280;53694;49.784;30.150;2023-03-23T02:58:34;99579.35;;;9.02;65.37
61474;BME280;53694;49.784;30.150;2023-03-23T02:59:36;99581.63;;;8.84;65.68
61474;BME280;53694;49.784;30.150;2023-03-23T03:00:38;99570.43;;;8.61;66.16
61474;BME280;53694;49.784;30.150;2023-03-23T03:02:56;99582.66;;;8.11;66.22
61474;BME280;53694;49.784;30.150;2023-03-23T03:04:01;99586.94;;;7.84;66.83
61474;BME280;53694;49.784;30.150;2023-03-23T03:07:23;99586.93;;;7.11;67.42
61474;BME280;53694;49.784;30.150;2023-03-23T03:10:08;99584.75;;;6.59;68.44
61474;BME280;53694;49.784;30.150;2023-03-23T03:11:11;99582.44;;;6.28;68.49
61474;BME280;53694;49.784;30.150;2023-03-23T03:12:33;99584.17;;;6.11;70.16
61474;BME280;53694;49.784;30.150;2023-03-23T03:17:32;99586.70;;;5.95;72.62
61474;BME280;53694;49.784;30.150;2023-03-23T03:19:23;99588.17;;;6.35;71.42
61474;BME280;53694;49.784;30.150;2023-03-23T03:19:48;99584.77;;;6.71;71.89
61474;BME280;53694;49.784;30.150;2023-03-23T03:20:54;99590.80;;;7.10;69.86
61474;BME280;53694;49.784;30.150;2023-03-23T03:21:58;99587.30;;;7.46;70.33
61474;BME280;53694;49.784;30.150;2023-03-23T03:23:01;99592.88;;;7.74;67.39
61474;BME280;53694;49.784;30.150;2023-03-23T03:24:03;99595.13;;;7.96;68.62
61474;BME280;53694;49.784;30.150;2023-03-23T03:25:07;99590.78;;;8.08;66.87
61474;BME280;53694;49.784;30.150;2023-03-23T03:26:11;99584.59;;;8.11;66.73
61474;BME280;53694;49.784;30.150;2023-03-23T03:27:16;99589.16;;;8.07;67.00
61474;BME280;53694;49.784;30.150;2023-03-23T03:28:20;99594.22;;;7.92;67.67
61474;BME280;53694;49.784;30.150;2023-03-23T03:29:25;99587.41;;;7.74;68.40
61474;BME280;53694;49.784;30.150;2023-03-23T03:30:30;99592.20;;;7.53;69.72
61474;BME280;53694;49.784;30.150;2023-03-23T03:31:36;99587.64;;;7.32;70.61
61474;BME280;53694;49.784;30.150;2023-03-23T03:32:41;99583.72;;;7.09;71.69
61474;BME280;53694;49.784;30.150;2023-03-23T03:33:42;99587.80;;;6.90;72.63
61474;BME280;53694;49.784;30.150;2023-03-23T03:34:45;99585.95;;;6.82;73.55
61474;BME280;53694;49.784;30.150;2023-03-23T03:35:47;99587.80;;;6.90;73.77
61474;BME280;53694;49.784;30.150;2023-03-23T03:36:51;99582.70;;;7.13;73.86
61474;BME280;53694;49.784;30.150;2023-03-23T03:37:55;99584.91;;;7.44;73.43
61474;BME280;53694;49.784;30.150;2023-03-23T03:38:58;99587.61;;;7.81;72.55
61474;BME280;53694;49.784;30.150;2023-03-23T03:40:00;99582.08;;;8.18;71.46
61474;BME280;53694;49.784;30.150;2023-03-23T03:41:02;99576.52;;;8.55;70.21
61474;BME280;53694;49.784;30.150;2023-03-23T03:42:05;99571.89;;;8.87;68.75
61474;BME280;53694;49.784;30.150;2023-03-23T03:43:07;99574.22;;;9.16;67.83
61474;BME280;53694;49.784;30.150;2023-03-23T03:44:09;99571.83;;;9.46;66.63
61474;BME280;53694;49.784;30.150;2023-03-23T03:45:15;99577.39;;;9.66;65.67
61474;BME280;53694;49.784;30.150;2023-03-23T03:46:16;99575.86;;;9.68;64.90
61474;BME280;53694;49.784;30.150;2023-03-23T03:47:17;99579.95;;;9.59;64.50
61474;BME280;53694;49.784;30.150;2023-03-23T03:48:18;99576.42;;;9.42;64.78
61474;BME280;53694;49.784;30.150;2023-03-23T03:49:20;99579.80;;;9.20;65.22
61474;BME280;53694;49.784;30.150;2023-03-23T03:50:21;99579.25;;;8.98;66.07
61474;BME280;53694;49.784;30.150;2023-03-23T03:51:24;99581.42;;;8.77;66.80
61474;BME280;53694;49.784;30.150;2023-03-23T03:52:25;99579.69;;;8.57;67.18
61474;BME280;53694;49.784;30.150;2023-03-23T03:53:27;99582.30;;;8.37;68.21
61474;BME280;53694;49.784;30.150;2023-03-23T03:54:29;99587.20;;;8.19;69.03
61474;BME280;53694;49.784;30.150;2023-03-23T03:55:31;99579.98;;;7.99;68.66
61474;BME280;53694;49.784;30.150;2023-03-23T03:56:33;99585.70;;;7.82;68.84
61474;BME280;53694;49.784;30.150;2023-03-23T03:57:35;99589.47;;;7.65;69.42
61474;BME280;53694;49.784;30.150;2023-03-23T03:58:37;99584.69;;;7.49;69.95
61474;BME280;53694;49.784;30.150;2023-03-23T03:59:38;99584.67;;;7.37;70.91
61474;BME280;53694;49.784;30.150;2023-03-23T04:00:40;99585.14;;;7.27;71.74
61474;BME280;53694;49.784;30.150;2023-03-23T04:01:41;99584.45;;;7.18;72.30
61474;BME280;53694;49.784;30.150;2023-03-23T04:02:47;99592.64;;;7.18;72.54
61474;BME280;53694;49.784;30.150;2023-03-23T04:03:50;99587.64;;;7.32;72.81
61474;BME280;53694;49.784;30.150;2023-03-23T04:04:52;99581.48;;;7.60;72.54
61474;BME280;53694;49.784;30.150;2023-03-23T04:05:54;99582.59;;;7.95;71.71
61474;BME280;53694;49.784;30.150;2023-03-23T04:06:56;99579.31;;;8.30;70.53
61474;BME280;53694;49.784;30.150;2023-03-23T04:07:57;99576.01;;;8.65;69.48
61474;BME280;53694;49.784;30.150;2023-03-23T04:08:59;99577.67;;;8.97;68.57
61474;BME280;53694;49.784;30.150;2023-03-23T04:10:00;99566.71;;;9.29;67.79
61474;BME280;53694;49.784;30.150;2023-03-23T04:11:02;99577.91;;;9.56;66.87
61474;BME280;53694;49.784;30.150;2023-03-23T04:12:04;99576.23;;;9.67;66.04
61474;BME280;53694;49.784;30.150;2023-03-23T04:13:05;99580.83;;;9.63;65.48
61474;BME280;53694;49.784;30.150;2023-03-23T04:14:07;99576.24;;;9.51;65.66
61474;BME280;53694;49.784;30.150;2023-03-23T04:15:09;99572.98;;;9.30;66.03
61474;BME280;53694;49.784;30.150;2023-03-23T04:16:11;99579.55;;;9.09;66.66
61474;BME280;53694;49.784;30.150;2023-03-23T04:17:12;99571.56;;;8.88;67.40
61474;BME280;53694;49.784;30.150;2023-03-23T04:18:14;99573.73;;;8.67;68.06
61474;BME280;53694;49.784;30.150;2023-03-23T04:19:16;99574.37;;;8.48;68.81
61474;BME280;53694;49.784;30.150;2023-03-23T04:20:18;99576.58;;;8.30;69.40
61474;BME280;53694;49.784;30.150;2023-03-23T04:21:19;99573.77;;;8.14;70.01
61474;BME280;53694;49.784;30.150;2023-03-23T04:22:21;99580.77;;;7.99;70.67
61474;BME280;53694;49.784;30.150;2023-03-23T04:23:22;99579.64;;;7.88;71.27
61474;BME280;53694;49.784;30.150;2023-03-23T04:24:24;99579.20;;;7.86;71.78
61474;BME280;53694;49.784;30.150;2023-03-23T04:25:25;99572.45;;;7.96;71.93
61474;BME280;53694;49.784;30.150;2023-03-23T04:26:27;99577.88;;;8.20;71.55
61474;BME280;53694;49.784;30.150;2023-03-23T04:27:29;99574.47;;;8.51;70.80
61474;BME280;53694;49.784;30.150;2023-03-23T04:28:30;99571.56;;;8.88;69.94
61474;BME280;53694;49.784;30.150;2023-03-23T04:29:32;99570.52;;;9.24;68.85
61474;BME280;53694;49.784;30.150;2023-03-23T04:30:34;99580.75;;;9.59;67.40
61474;BME280;53694;49.784;30.150;2023-03-23T04:31:35;99577.79;;;9.84;66.30
61474;BME280;53694;49.784;30.150;2023-03-23T04:32:37;99576.88;;;9.95;65.69
61474;BME280;53694;49.784;30.150;2023-03-23T04:33:38;99575.64;;;9.93;65.38
61474;BME280;53694;49.784;30.150;2023-03-23T04:34:40;99575.05;;;9.84;65.45
61474;BME280;53694;49.784;30.150;2023-03-23T04:35:42;99575.52;;;9.70;65.74
61474;BME280;53694;49.784;30.150;2023-03-23T04:36:45;99578.65;;;9.53;66.10
61474;BME280;53694;49.784;30.150;2023-03-23T04:37:46;99582.55;;;9.36;66.52
61474;BME280;53694;49.784;30.150;2023-03-23T04:38:48;99583.23;;;9.17;67.05
61474;BME280;53694;49.784;30.150;2023-03-23T04:39:50;99580.84;;;8.99;67.59
61474;BME280;53694;49.784;30.150;2023-03-23T04:40:52;99581.63;;;8.84;68.12
61474;BME280;53694;49.784;30.150;2023-03-23T04:41:53;99572.22;;;8.69;68.61
61474;BME280;53694;49.784;30.150;2023-03-23T04:42:55;99575.80;;;8.58;69.14
61474;BME280;53694;49.784;30.150;2023-03-23T04:43:56;99584.09;;;8.45;69.76
61474;BME280;53694;49.784;30.150;2023-03-23T04:44:58;99581.14;;;8.38;70.23
61474;BME280;53694;49.784;30.150;2023-03-23T04:46:00;99582.48;;;8.32;70.69
61474;BME280;53694;49.784;30.150;2023-03-23T04:47:02;99589.36;;;8.26;70.87
61474;BME280;53694;49.784;30.150;2023-03-23T04:48:04;99590.50;;;8.25;71.05
61474;BME280;53694;49.784;30.150;2023-03-23T04:49:06;99587.05;;;8.40;70.91
61474;BME280;53694;49.784;30.150;2023-03-23T04:50:10;99586.95;;;8.65;70.58
61474;BME280;53694;49.784;30.150;2023-03-23T04:51:12;99583.58;;;8.99;69.72
61474;BME280;53694;49.784;30.150;2023-03-23T04:52:13;99587.76;;;9.41;68.67
61474;BME280;53694;49.784;30.150;2023-03-23T04:53:15;99591.79;;;9.79;67.31
61474;BME280;53694;49.784;30.150;2023-03-23T04:54:16;99593.65;;;10.10;66.36
61474;BME280;53694;49.784;30.150;2023-03-23T04:55:18;99592.13;;;10.28;65.29
61474;BME280;53694;49.784;30.150;2023-03-23T04:56:20;99589.81;;;10.30;64.54
61474;BME280;53694;49.784;30.150;2023-03-23T04:57:22;99587.66;;;10.23;64.33
61474;BME280;53694;49.784;30.150;2023-03-23T04:58:24;99593.65;;;10.10;64.59
61474;BME280;53694;49.784;30.150;2023-03-23T04:59:25;99590.94;;;9.94;64.85
61474;BME280;53694;49.784;30.150;2023-03-23T05:00:27;99597.64;;;9.77;65.28
61474;BME280;53694;49.784;30.150;2023-03-23T05:01:29;99601.19;;;9.62;65.81
61474;BME280;53694;49.784;30.150;2023-03-23T05:02:30;99593.33;;;9.44;66.22
61474;BME280;53694;49.784;30.150;2023-03-23T05:03:32;99594.11;;;9.29;66.89
61474;BME280;53694;49.784;30.150;2023-03-23T05:04:33;99598.55;;;9.18;67.21
61474;BME280;53694;49.784;30.150;2023-03-23T05:05:35;99599.75;;;9.05;67.71
61474;BME280;53694;49.784;30.150;2023-03-23T05:06:36;99594.80;;;8.94;68.26
61474;BME280;53694;49.784;30.150;2023-03-23T05:07:39;99597.70;;;8.86;68.67
61474;BME280;53694;49.784;30.150;2023-03-23T05:08:40;99592.02;;;8.79;68.96
61474;BME280;53694;49.784;30.150;2023-03-23T05:09:46;99603.59;;;8.72;69.29
61474;BME280;53694;49.784;30.150;2023-03-23T05:10:52;99598.02;;;8.68;69.56
61474;BME280;53694;49.784;30.150;2023-03-23T05:11:54;99601.00;;;8.63;69.83
61474;BME280;53694;49.784;30.150;2023-03-23T05:12:56;99603.64;;;8.60;70.18
61474;BME280;53694;49.784;30.150;2023-03-23T05:13:57;99594.97;;;8.58;70.43
61474;BME280;53694;49.784;30.150;2023-03-23T05:14:59;99596.11;;;8.57;70.57
61474;BME280;53694;49.784;30.150;2023-03-23T05:16:04;99598.27;;;8.63;70.77
61474;BME280;53694;49.784;30.150;2023-03-23T05:17:06;99595.32;;;8.84;70.49
61474;BME280;53694;49.784;30.150;2023-03-23T05:18:08;99597.39;;;9.19;69.71
61474;BME280;53694;49.784;30.150;2023-03-23T05:19:09;99594.82;;;9.58;68.65
61474;BME280;53694;49.784;30.150;2023-03-23T05:20:13;99596.52;;;9.97;67.48
61474;BME280;53694;49.784;30.150;2023-03-23T05:21:16;99606.65;;;10.29;65.77
61474;BME280;53694;49.784;30.150;2023-03-23T05:22:19;99598.33;;;10.44;65.27
61474;BME280;53694;49.784;30.150;2023-03-23T05:23:20;99599.98;;;10.49;64.87
61474;BME280;53694;49.784;30.150;2023-03-23T05:24:22;99595.58;;;10.44;64.59
61474;BME280;53694;49.784;30.150;2023-03-23T05:25:23;99596.16;;;10.34;64.89
61474;BME280;53694;49.784;30.150;2023-03-23T05:26:25;99601.76;;;10.22;64.99
61474;BME280;53694;49.784;30.150;2023-03-23T05:27:26;99602.67;;;10.10;65.27
61474;BME280;53694;49.784;30.150;2023-03-23T05:28:28;99602.00;;;9.97;65.60
61474;BME280;53694;49.784;30.150;2023-03-23T05:29:30;99599.37;;;9.85;65.78
61474;BME280;53694;49.784;30.150;2023-03-23T05:30:31;99599.13;;;9.74;66.45
61474;BME280;53694;49.784;30.150;2023-03-23T05:31:33;99607.55;;;9.66;66.90
61474;BME280;53694;49.784;30.150;2023-03-23T05:32:35;99599.14;;;9.59;67.34
61474;BME280;53694;49.784;30.150;2023-03-23T05:33:36;99600.91;;;9.51;67.67
61474;BME280;53694;49.784;30.150;2023-03-23T05:34:38;99601.55;;;9.44;68.15
61474;BME280;53694;49.784;30.150;2023-03-23T05:35:39;99602.62;;;9.40;68.24
61474;BME280;53694;49.784;30.150;2023-03-23T05:36:41;99602.06;;;9.34;68.37
61474;BME280;53694;49.784;30.150;2023-03-23T05:37:43;99593.78;;;9.31;68.75
61474;BME280;53694;49.784;30.150;2023-03-23T05:38:44;99595.27;;;9.28;68.83
61474;BME280;53694;49.784;30.150;2023-03-23T05:39:46;99602.70;;;9.28;68.98
61474;BME280;53694;49.784;30.150;2023-03-23T05:40:48;99596.43;;;9.27;69.19
61474;BME280;53694;49.784;30.150;2023-03-23T05:41:49;99596.43;;;9.27;69.16
61474;BME280;53694;49.784;30.150;2023-03-23T05:42:52;99597.58;;;9.26;69.26
61474;BME280;53694;49.784;30.150;2023-03-23T05:43:53;99598.38;;;9.26;69.27
61474;BME280;53694;49.784;30.150;2023-03-23T05:44:55;99595.63;;;9.26;69.31
61474;BME280;53694;49.784;30.150;2023-03-23T05:45:56;99594.91;;;9.30;69.35
61474;BME280;53694;49.784;30.150;2023-03-23T05:46:58;99598.90;;;9.32;69.48
61474;BME280;53694;49.784;30.150;2023-03-23T05:47:59;99596.59;;;9.34;69.39
61474;BME280;53694;49.784;30.150;2023-03-23T05:49:01;99602.06;;;9.34;69.32
61474;BME280;53694;49.784;30.150;2023-03-23T05:50:03;99601.27;;;9.34;69.18